Latest Weather Observations for Cape Moreton

IDQ60901

Issued at 8:55 am EST Saturday 25 October 2014 (issued every 10 minutes, with the page automatically refreshed every 10 minutes)

About weather observations | Map of Brisbane area stations | Latest observations for Brisbane area | Other Formats
Station Details ID: 040043 Name: CAPE MORETON LIGHTHOUSE Lat: -27.03 Lon: 153.47 Height: 99.9 m
Data from the previous 72 hours. | See also: Recent months at Cape Moreton
Date/Time
EST
Tmp

°C
App
Tmp
°C
Dew
Point
°C
Rel
Hum
%
Delta-T

°C
Wind Press
QNH
hPa
Press
MSL
hPa
Rain
since
9 am
mm
Dir
 
Spd
km/h
Gust
km/h
Spd
kts
Gust
kts
25/08:30am 21.3 18.7 16.0 72 3.2 NW 24 30 13 16 1021.6 1021.3 0.0
25/08:00am 21.2 18.6 16.0 72 3.1 NW 24 30 13 16 1021.4 1021.1 0.0
25/07:30am 20.9 19.3 16.1 74 2.9 NW 19 28 10 15 1021.5 1021.2 0.0
25/07:00am 20.7 19.5 16.1 75 2.8 NW 17 24 9 13 1021.2 1020.9 0.0
25/06:30am 20.4 18.7 15.8 75 2.8 NW 19 26 10 14 1021.0 1020.7 0.0
25/06:00am 20.4 17.9 15.2 72 3.1 NNW 22 32 12 17 1020.4 1020.1 0.0
25/05:30am 20.3 17.3 14.9 71 3.2 N 24 30 13 16 1020.2 1019.9 0.0
25/05:00am 20.2 17.2 14.8 71 3.2 N 24 32 13 17 1020.0 1019.7 0.0
25/04:30am 20.0 17.7 14.6 71 3.2 N 20 28 11 15 1019.9 1019.6 0.0
25/04:00am 20.0 17.6 14.4 70 3.3 N 20 28 11 15 1019.8 1019.5 0.0
25/03:30am 19.9 17.5 14.3 70 3.3 N 20 28 11 15 1019.7 1019.4 0.0
25/03:00am 20.0 16.7 13.9 68 3.5 N 24 30 13 16 1019.2 1018.9 0.0
25/02:30am 19.9 17.1 14.3 70 3.3 N 22 30 12 16 1019.1 1018.8 0.0
25/02:00am 19.9 16.3 14.3 70 3.3 N 26 33 14 18 1018.7 1018.4 0.0
25/01:30am 19.9 16.7 14.3 70 3.3 N 24 32 13 17 1019.4 1019.1 0.0
25/01:00am 20.0 17.7 14.6 71 3.2 N 20 28 11 15 1020.3 1020.0 0.0
25/12:30am 20.0 17.6 14.4 70 3.3 N 20 26 11 14 1020.7 1020.4 0.0
25/12:00am 20.1 17.6 14.0 68 3.5 N 20 28 11 15 1021.0 1020.7 0.0
 
Date/Time
EST
Tmp

°C
App
Tmp
°C
Dew
Point
°C
Rel
Hum
%
Delta-T

°C
Wind Press
QNH
hPa
Press
MSL
hPa
Rain
since
9 am
mm
Dir
 
Spd
km/h
Gust
km/h
Spd
kts
Gust
kts
24/11:30pm 20.2 17.7 14.1 68 3.5 N 20 28 11 15 1021.5 1021.2 0.0
24/11:00pm 20.2 17.3 14.1 68 3.5 N 22 30 12 16 1022.0 1021.7 0.0
24/10:30pm 20.3 17.5 14.4 69 3.4 N 22 30 12 16 1022.0 1021.7 0.0
24/10:00pm 20.3 17.5 14.4 69 3.4 N 22 30 12 16 1022.2 1021.9 0.0
24/09:30pm 20.3 17.2 14.4 69 3.4 N 24 32 13 17 1022.5 1022.2 0.0
24/09:00pm 20.3 16.3 14.2 68 3.5 N 28 35 15 19 1022.2 1021.9 0.0
24/08:30pm 20.2 17.1 14.6 70 3.3 N 24 32 13 17 1022.2 1021.9 0.0
24/08:00pm 20.3 16.8 14.4 69 3.4 NNE 26 33 14 18 1022.1 1021.8 0.0
24/07:30pm 20.3 16.5 13.7 66 3.8 NNE 26 32 14 17 1022.1 1021.8 0.0
24/07:00pm 20.2 16.1 13.9 67 3.6 NNE 28 35 15 19 1021.7 1021.4 0.0
24/06:30pm 20.2 16.5 13.9 67 3.6 NNE 26 35 14 19 1021.3 1021.0 0.0
24/06:00pm 20.3 15.5 14.0 67 3.6 NNE 32 37 17 20 1020.8 1020.5 0.0
24/05:30pm 20.4 16.8 14.1 67 3.7 NE 26 33 14 18 1020.6 1020.3 0.0
24/05:00pm 20.5 16.4 13.7 65 3.9 NE 28 33 15 18 1020.4 1020.1 0.0
24/04:30pm 20.7 16.5 13.6 64 4.1 NE 28 35 15 19 1020.0 1019.7 0.0
24/04:00pm 20.9 16.3 13.6 63 4.2 ENE 30 35 16 19 1020.0 1019.7 0.0
24/03:30pm 21.2 17.5 13.9 63 4.2 ENE 26 32 14 17 1020.1 1019.8 0.0
24/03:00pm 21.3 17.8 13.5 61 4.5 ENE 24 32 13 17 1020.3 1020.0 0.0
24/02:30pm 21.8 19.3 13.4 59 4.9 ENE 19 26 10 14 1020.6 1020.3 0.0
24/02:00pm 22.9 20.6 14.2 58 5.1 NE 19 24 10 13 1020.9 1020.6 0.0
24/01:30pm 23.5 21.2 14.2 56 5.5 NE 19 22 10 12 1021.2 1020.9 0.0
24/01:00pm 23.6 21.5 14.6 57 5.3 NNE 19 24 10 13 1021.4 1021.1 0.0
24/12:30pm 23.9 22.2 14.6 56 5.5 NNE 17 22 9 12 1021.7 1021.4 0.0
24/12:00pm 24.0 22.3 14.7 56 5.5 NNE 17 24 9 13 1021.8 1021.5 0.0
24/11:30am 23.0 22.6 15.3 62 4.6 N 11 17 6 9 1022.3 1022.0 0.0
24/11:00am 22.8 22.9 15.6 64 4.3 N 9 13 5 7 1022.4 1022.1 0.0
24/10:30am 23.1 23.0 15.9 64 4.4 N 11 17 6 9 1022.8 1022.5 0.0
24/10:00am 22.2 22.0 15.8 67 3.8 NW 11 17 6 9 1023.1 1022.7 0.0
24/09:30am 22.0 22.2 15.8 68 3.7 WNW 9 19 5 10 1023.4 1023.0 0.0
24/09:00am 21.9 21.4 15.0 65 4.1 NNW 11 17 6 9 1023.3 1022.9 0.0
24/08:30am 21.6 21.6 15.2 67 3.8 N 9 11 5 6 1023.2 1022.8 0.0
24/08:00am 21.4 21.8 15.3 68 3.6 NW 7 11 4 6 1023.2 1022.8 0.0
24/07:30am 21.5 21.6 14.4 64 4.2 N 7 11 4 6 1022.8 1022.5 0.0
24/07:00am 21.1 21.0 14.0 64 4.1 N 7 11 4 6 1022.5 1022.2 0.0
24/06:30am 20.7 20.2 13.9 65 3.9 NNE 9 13 5 7 1022.3 1022.0 0.0
24/06:00am 20.1 19.2 13.8 67 3.6 NNE 11 15 6 8 1022.2 1021.9 0.0
24/05:30am 19.8 18.5 13.7 68 3.5 N 13 19 7 10 1021.8 1021.5 0.0
24/05:00am 19.8 18.9 13.7 68 3.5 N 11 17 6 9 1021.7 1021.4 0.0
24/04:30am 19.5 18.1 13.4 68 3.5 N 13 17 7 9 1021.3 1021.0 0.0
24/04:00am 19.5 17.8 13.7 69 3.3 N 15 19 8 10 1021.0 1020.7 0.0
24/03:30am 19.3 17.2 13.5 69 3.3 N 17 20 9 11 1020.8 1020.5 0.0
24/03:00am 19.4 17.4 13.8 70 3.2 N 17 26 9 14 1020.8 1020.5 0.0
24/02:30am 19.3 17.2 13.5 69 3.3 N 17 22 9 12 1020.8 1020.5 0.0
24/02:00am 19.3 16.7 13.7 70 3.2 NNE 20 24 11 13 1020.6 1020.3 0.0
24/01:30am 19.3 16.5 13.2 68 3.5 NNE 20 26 11 14 1020.7 1020.4 0.0
24/01:00am 19.3 16.6 13.5 69 3.3 NNE 20 26 11 14 1021.0 1020.7 0.0
24/12:30am 19.3 16.6 13.5 69 3.3 NNE 20 24 11 13 1021.4 1021.1 0.0
24/12:00am 19.3 16.5 13.2 68 3.5 NNE 20 26 11 14 1021.6 1021.3 0.0
 
Date/Time
EST
Tmp

°C
App
Tmp
°C
Dew
Point
°C
Rel
Hum
%
Delta-T

°C
Wind Press
QNH
hPa
Press
MSL
hPa
Rain
since
9 am
mm
Dir
 
Spd
km/h
Gust
km/h
Spd
kts
Gust
kts
23/11:30pm 19.4 16.7 13.6 69 3.3 NNE 20 24 11 13 1021.8 1021.5 0.0
23/11:00pm 19.4 16.7 13.6 69 3.3 NNE 20 24 11 13 1021.9 1021.6 0.0
23/10:30pm 19.4 16.0 13.8 70 3.2 NNE 24 30 13 16 1021.6 1021.3 0.0
23/10:00pm 19.5 16.9 13.7 69 3.3 NNE 20 24 11 13 1022.0 1021.7 0.0
23/09:30pm 19.5 17.0 13.4 68 3.5 NNE 19 22 10 12 1022.0 1021.7 0.0
23/09:00pm 19.7 16.7 13.6 68 3.5 NE 22 32 12 17 1021.5 1021.2 0.0
23/08:30pm 19.7 16.4 12.7 64 4.0 NE 22 30 12 16 1021.3 1021.0 0.0
23/08:00pm 19.7 16.5 13.2 66 3.7 NE 22 30 12 16 1020.9 1020.6 0.0
23/07:30pm 19.7 16.4 12.7 64 4.0 NE 22 28 12 15 1020.6 1020.3 0.0
23/07:00pm 19.7 16.9 13.2 66 3.7 NNE 20 28 11 15 1020.4 1020.1 0.0
23/06:30pm 19.7 16.5 13.2 66 3.7 NNE 22 28 12 15 1020.1 1019.8 0.0
23/06:00pm 19.8 16.7 13.3 66 3.7 NE 22 28 12 15 1019.6 1019.3 0.0
23/05:30pm 19.9 15.9 13.1 65 3.9 NE 26 33 14 18 1018.9 1018.6 0.0
23/05:00pm 20.1 16.0 12.6 62 4.2 NE 26 32 14 17 1018.6 1018.3 0.0
23/04:30pm 20.2 16.9 12.7 62 4.3 NE 22 32 12 17 1018.5 1018.2 0.0
23/04:00pm 20.5 17.8 13.5 64 4.0 NE 20 28 11 15 1018.3 1018.0 0.0
23/03:30pm 20.6 17.0 13.1 62 4.3 ENE 24 30 13 16 1018.2 1017.9 0.0
23/03:00pm 20.8 17.7 13.3 62 4.3 NE 22 28 12 15 1018.3 1018.0 0.0
23/02:30pm 21.2 18.1 12.3 57 5.0 NE 20 26 11 14 1018.5 1018.2 0.0
23/02:00pm 21.8 19.4 12.6 56 5.2 ENE 17 20 9 11 1019.0 1018.7 0.0
23/01:30pm 22.3 20.4 13.1 56 5.3 NE 15 19 8 10 1019.5 1019.2 0.0
23/01:00pm 22.6 21.1 13.1 55 5.5 NNE 13 19 7 10 1020.1 1019.8 0.0
23/12:30pm 21.7 20.8 13.6 60 4.7 N 11 17 6 9 1020.4 1020.1 0.0
23/12:00pm 22.3 21.4 13.6 58 5.0 N 11 19 6 10 1020.9 1020.6 0.0
23/11:30am 23.2 22.2 14.5 58 5.2 NNE 13 19 7 10 1021.4 1021.1 0.0
23/11:00am 22.9 21.3 12.8 53 5.8 NE 13 17 7 9 1021.7 1021.4 0.0
23/10:30am 23.3 22.3 13.5 54 5.7 ENE 11 15 6 8 1022.0 1021.7 0.0
23/10:00am 22.9 21.3 12.8 53 5.8 E 13 17 7 9 1022.3 1022.0 0.0
23/09:30am 22.1 20.8 12.4 54 5.5 E 11 15 6 8 1022.5 1022.2 0.0
23/09:00am 23.3 22.4 13.8 55 5.5 E 11 15 6 8 1022.6 1022.3 0.0
23/08:30am 22.1 20.7 12.1 53 5.7 E 11 15 6 8 1022.6 1022.3 0.0
23/08:00am 22.4 21.5 12.6 54 5.6 E 9 13 5 7 1022.6 1022.3 0.0
23/07:30am 19.8 20.2 12.6 63 4.1 SW 2 6 1 3 1022.5 1022.2 0.0
23/07:00am 20.0 19.5 12.5 62 4.2 ESE 7 13 4 7 1022.3 1022.0 0.0
23/06:30am 21.0 19.7 12.4 58 4.9 E 11 13 6 7 1022.0 1021.7 0.0
23/06:00am 19.9 18.2 12.4 62 4.2 E 13 17 7 9 1022.0 1021.7 0.0
23/05:30am 18.0 15.9 11.1 64 3.8 ESE 13 17 7 9 1021.9 1021.6 0.0
23/05:00am 17.5 16.3 11.5 68 3.3 E 9 13 5 7 1021.8 1021.5 0.0
23/04:30am 17.8 16.2 11.4 66 3.5 E 11 13 6 7 1021.6 1021.3 0.0
23/04:00am 17.6 15.8 10.9 65 3.6 ESE 11 17 6 9 1021.4 1021.1 0.0
23/03:30am 18.1 14.7 10.7 62 4.0 ESE 19 22 10 12 1021.2 1020.9 0.0
23/03:00am 18.1 15.1 12.1 68 3.3 ESE 19 20 10 11 1021.2 1020.9 0.0
23/02:30am 17.8 15.8 11.6 67 3.4 E 13 17 7 9 1021.3 1021.0 0.0
23/02:00am 17.9 15.1 11.5 66 3.5 ESE 17 24 9 13 1021.4 1021.1 0.0
23/01:30am 18.2 15.2 12.0 67 3.4 E 19 24 10 13 1021.6 1021.3 0.0
23/01:00am 18.2 14.9 11.7 66 3.6 E 20 28 11 15 1021.9 1021.6 0.0
23/12:30am 18.5 14.7 12.3 67 3.5 E 24 30 13 16 1022.1 1021.8 0.0
23/12:00am 18.4 14.3 11.5 64 3.8 ESE 24 32 13 17 1022.5 1022.2 0.0
 
Date/Time
EST
Tmp

°C
App
Tmp
°C
Dew
Point
°C
Rel
Hum
%
Delta-T

°C
Wind Press
QNH
hPa
Press
MSL
hPa
Rain
since
9 am
mm
Dir
 
Spd
km/h
Gust
km/h
Spd
kts
Gust
kts
22/11:30pm 18.5 15.3 12.0 66 3.6 ESE 20 24 11 13 1022.9 1022.6 0.0
22/11:00pm 18.4 14.4 11.7 65 3.7 ESE 24 30 13 16 1023.3 1022.9 0.0
22/10:30pm 18.5 13.7 11.8 65 3.7 ESE 28 35 15 19 1023.2 1022.8 0.0
22/10:00pm 18.7 13.4 12.5 67 3.5 E 32 39 17 21 1023.1 1022.7 0.0
22/09:30pm 18.7 13.9 12.9 69 3.3 ESE 30 35 16 19 1023.3 1022.9 0.0
22/09:00pm 18.7 13.4 12.5 67 3.5 ESE 32 39 17 21 1023.3 1022.9 0.0
22/08:30pm 18.9 13.7 12.9 68 3.4 ESE 32 39 17 21 1023.3 1022.9 0.0
22/08:00pm 18.9 13.5 12.9 68 3.4 ESE 33 41 18 22 1023.2 1022.8 0.0
22/07:30pm 18.8 13.0 12.8 68 3.4 ESE 35 43 19 23 1022.9 1022.6 0.0
22/07:00pm 18.9 13.2 13.1 69 3.3 ESE 35 43 19 23 1022.9 1022.6 0.0
22/06:30pm 18.8 13.5 13.0 69 3.3 ESE 33 37 18 20 1022.8 1022.5 0.0
22/06:00pm 18.8 13.2 12.1 65 3.7 ESE 33 41 18 22 1022.5 1022.2 0.0
22/05:30pm 19.0 13.1 12.5 66 3.6 ESE 35 43 19 23 1022.5 1022.2 0.0
22/05:00pm 19.2 12.9 13.6 70 3.2 ESE 39 46 21 25 1022.2 1021.9 0.0
22/04:30pm 19.7 13.6 12.9 65 3.9 ESE 37 44 20 24 1022.2 1021.9 0.0
22/04:00pm 19.7 12.8 11.7 60 4.4 ESE 39 46 21 25 1022.1 1021.8 0.0
22/03:30pm 20.0 13.4 12.5 62 4.2 ESE 39 46 21 25 1022.2 1021.9 0.0
22/03:00pm 20.2 13.5 12.4 61 4.4 ESE 39 46 21 25 1022.2 1021.9 0.0
22/02:30pm 20.6 13.7 12.8 61 4.4 ESE 41 48 22 26 1022.3 1022.0 0.0
22/02:00pm 20.9 14.3 12.6 59 4.7 SE 39 50 21 27 1022.6 1022.3 0.0
22/01:30pm 21.1 14.5 11.4 54 5.4 SE 37 46 20 25 1022.9 1022.6 0.0
22/01:00pm 21.8 15.1 12.4 55 5.3 ESE 39 50 21 27 1023.2 1022.8 0.0
22/12:30pm 21.4 15.2 12.5 57 5.1 ESE 37 46 20 25 1023.5 1023.1 0.0
22/12:00pm 22.2 16.2 12.2 53 5.6 SE 35 43 19 23 1024.0 1023.6 0.0
22/11:30am 21.8 15.6 11.5 52 5.8 SE 35 41 19 22 1024.4 1024.0 0.0
22/11:00am 22.0 16.1 12.5 54 5.4 ESE 35 43 19 23 1024.7 1024.3 0.0
22/10:30am 22.1 15.5 11.5 51 5.9 SE 37 46 20 25 1024.8 1024.4 0.0
22/10:00am 20.8 14.1 12.2 58 4.8 SE 39 48 21 26 1024.9 1024.5 0.0
22/09:30am 21.6 14.8 11.9 54 5.5 SE 39 48 21 26 1024.9 1024.5 0.0
22/09:00am 20.3 13.5 13.0 63 4.1 ESE 41 50 22 27 1025.0 1024.6 1.4

Latest Capital City Observations: Canberra | Sydney | Melbourne | Brisbane | Adelaide | Perth | Hobart | Darwin

Other Formats:

Comma delimited format used in spreadsheet applications
http://www.bom.gov.au/fwo/IDQ60901/IDQ60901.94594.axf

JavaScript Object Notation format (JSON) in row-major order
http://www.bom.gov.au/fwo/IDQ60901/IDQ60901.94594.json